Time;durP1;ratioP1;P1;durP2;ratioP2;P2;SDS_P1;SDS_P2;PMS_P1;PMS_P2;Temp;Humidity;BMP_temperature;BMP_pressure;BME280_temperature;BME280_humidity;BME280_pressure;Samples;Min_cycle;Max_cycle;Signal;HPM_P1;HPM_P2
2021/01/11 07:54:09;;;;;;;;;;;;;;;0.70;71.83;100846.45;1749199;81;20596;-47
2021/01/11 07:56:37;;;;;;;;;;;;;;;0.67;71.26;100842.43;1734436;81;20192;-44
2021/01/11 07:59:05;;;;;;;;;;;;;;;0.71;70.42;100841.78;1735095;81;20250;-47
2021/01/11 08:01:34;;;;;;;;;;;;;;;0.78;69.89;100848.98;1729911;81;20170;-47
2021/01/11 08:04:02;;;;;;;;;;;;;;;0.85;69.60;100854.90;1705487;81;20255;-48
2021/01/11 08:06:32;;;;;;;;;;;;;;;0.91;69.35;100856.88;1729170;81;20492;-48
2021/01/11 08:08:59;;;;;;;;;;;;;;;0.94;68.95;100854.47;1713346;81;20168;-48
2021/01/11 08:11:27;;;;;;;;;;;;;;;0.97;68.70;100854.19;1705090;81;20291;-47
2021/01/11 08:13:59;;;;;;;;;;;;;;;1.00;68.42;100856.92;1731903;81;20200;-48
2021/01/11 08:16:27;;;;;;;;;;;;;;;1.05;68.29;100854.58;1724760;81;20280;-44
2021/01/11 08:18:59;;;;;;;;;;;;;;;1.10;68.10;100849.20;1704352;81;20191;-42
2021/01/11 08:21:27;;;;;;;;;;;;;;;1.12;68.11;100852.75;1729977;82;20271;-42
2021/01/11 08:23:59;;;;;;;;;;;;;;;1.13;67.90;100862.66;1728569;81;20464;-43
2021/01/11 08:26:28;;;;;;;;;;;;;;;1.11;67.80;100874.19;1737266;81;20186;-43
2021/01/11 08:28:56;;;;;;;;;;;;;;;1.11;67.52;100873.31;1731935;81;20153;-41
2021/01/11 08:31:24;;;;;;;;;;;;;;;1.08;67.41;100875.73;1733489;81;20241;-44
2021/01/11 08:33:53;;;;;;;;;;;;;;;1.03;67.50;100871.23;1723572;81;20185;-41
2021/01/11 08:36:21;;;;;;;;;;;;;;;1.03;67.39;100874.21;1723305;81;20204;-41
2021/01/11 08:39:09;;;;;;;;;;;;;;;1.02;67.51;100883.64;1724845;82;20186;-41
2021/01/11 08:41:39;;;;;;;;;;;;;;;1.06;67.34;100880.81;1738007;82;20166;-44
2021/01/11 08:44:09;;;;;;;;;;;;;;;1.03;66.63;100879.37;1725346;81;20477;-42
2021/01/11 08:46:55;;;;;;;;;;;;;;;1.04;66.67;100879.84;1732237;82;20213;-41
2021/01/11 08:49:23;;;;;;;;;;;;;;;1.16;66.25;100882.11;1736241;81;20640;-46
2021/01/11 08:51:50;;;;;;;;;;;;;;;1.25;65.88;100880.86;1730652;82;20739;-46
2021/01/11 08:54:26;;;;;;;;;;;;;;;1.33;65.69;100882.49;1707086;82;20158;-45
2021/01/11 08:56:58;;;;;;;;;;;;;;;1.37;65.41;100882.23;1733279;81;20205;-45
2021/01/11 08:59:25;;;;;;;;;;;;;;;1.34;65.28;100880.41;1730467;82;20177;-41
2021/01/11 09:01:53;;;;;;;;;;;;;;;1.40;65.65;100875.95;1729850;81;20264;-41
2021/01/11 09:04:35;;;;;;;;;;;;;;;1.50;65.37;100870.38;1721152;81;20154;-44
2021/01/11 09:07:06;;;;;;;;;;;;;;;1.54;64.83;100861.56;1740740;81;20166;-41
2021/01/11 09:09:36;;;;;;;;;;;;;;;1.53;64.53;100849.89;1738169;82;20165;-41
2021/01/11 09:12:07;;;;;;;;;;;;;;;1.54;64.67;100847.37;1734383;81;20536;-42
2021/01/11 09:14:35;;;;;;;;;;;;;;;1.57;64.61;100837.63;1728530;81;20668;-47
2021/01/11 09:17:04;;;;;;;;;;;;;;;1.63;64.43;100828.86;1738366;81;20190;-46
2021/01/11 09:19:32;;;;;;;;;;;;;;;1.66;64.20;100828.98;1727911;82;20181;-43
2021/01/11 09:22:14;;;;;;;;;;;;;;;1.69;64.12;100826.55;1737558;82;20332;-46
2021/01/11 09:24:34;;;;;;;;;;;;;;;1.72;63.86;100821.52;1726955;81;20173;-42
2021/01/11 09:27:02;;;;;;;;;;;;;;;1.70;63.86;100819.70;1732963;81;20398;-47
2021/01/11 09:29:30;;;;;;;;;;;;;;;1.68;63.74;100816.14;1741396;82;20214;-47
2021/01/11 09:31:58;;;;;;;;;;;;;;;1.68;64.04;100818.34;1726025;81;20209;-47
2021/01/11 09:34:25;;;;;;;;;;;;;;;1.73;63.93;100818.52;1736414;81;20167;-46
2021/01/11 09:36:53;;;;;;;;;;;;;;;1.77;63.72;100813.56;1727211;81;20159;-47
2021/01/11 09:39:20;;;;;;;;;;;;;;;1.74;63.34;100813.83;1731657;81;20521;-47
2021/01/11 09:41:51;;;;;;;;;;;;;;;1.67;63.63;100801.08;1731281;81;20158;-45
2021/01/11 09:44:19;;;;;;;;;;;;;;;1.70;63.90;100810.66;1732655;81;20158;-42
2021/01/11 09:46:52;;;;;;;;;;;;;;;1.80;63.96;100812.84;1723675;81;20266;-42
2021/01/11 09:49:21;;;;;;;;;;;;;;;1.93;63.29;100812.54;1730975;81;20180;-43
2021/01/11 09:51:49;;;;;;;;;;;;;;;2.01;62.91;100818.90;1732420;81;20174;-43
2021/01/11 09:54:17;;;;;;;;;;;;;;;2.12;62.65;100818.06;1731601;81;20166;-44
2021/01/11 09:56:45;;;;;;;;;;;;;;;2.25;62.63;100811.71;1731453;80;20182;-44
2021/01/11 09:59:15;;;;;;;;;;;;;;;2.36;62.22;100814.33;1730749;81;20502;-44
2021/01/11 10:01:45;;;;;;;;;;;;;;;2.48;62.05;100822.58;1727181;80;20220;-42
2021/01/11 10:04:13;;;;;;;;;;;;;;;2.59;61.99;100826.48;1735319;80;20781;-44
2021/01/11 10:06:45;;;;;;;;;;;;;;;2.66;61.60;100836.64;1733456;80;20513;-43
2021/01/11 10:09:16;;;;;;;;;;;;;;;2.68;61.60;100844.48;1730023;80;20274;-42
2021/01/11 10:11:45;;;;;;;;;;;;;;;2.64;61.29;100848.62;1725270;80;20277;-42
2021/01/11 10:14:13;;;;;;;;;;;;;;;2.62;61.25;100849.87;1735330;80;20197;-42
2021/01/11 10:16:41;;;;;;;;;;;;;;;2.63;61.39;100847.75;1723972;82;20277;-44
2021/01/11 10:19:10;;;;;;;;;;;;;;;2.64;61.57;100848.62;1727758;80;20154;-43
2021/01/11 10:21:38;;;;;;;;;;;;;;;2.71;61.49;100841.59;1728838;82;20194;-42
2021/01/11 10:24:06;;;;;;;;;;;;;;;2.87;61.46;100852.14;1736775;82;20273;-42
2021/01/11 10:26:34;;;;;;;;;;;;;;;3.04;61.00;100848.93;1735609;81;20543;-46
2021/01/11 10:29:01;;;;;;;;;;;;;;;3.18;60.58;100854.20;1731948;82;20505;-46
2021/01/11 10:31:29;;;;;;;;;;;;;;;3.30;60.16;100853.80;1728575;80;20184;-47
2021/01/11 10:33:58;;;;;;;;;;;;;;;3.44;59.87;100852.21;1740481;80;20382;-47
2021/01/11 10:36:26;;;;;;;;;;;;;;;3.61;59.23;100846.79;1739169;81;20481;-46
2021/01/11 10:38:54;;;;;;;;;;;;;;;3.74;58.43;100848.98;1729560;80;20277;-46
2021/01/11 10:41:21;;;;;;;;;;;;;;;3.87;58.02;100847.30;1728060;81;20198;-46
2021/01/11 10:43:48;;;;;;;;;;;;;;;4.17;57.19;100845.31;1727269;80;20233;-46
2021/01/11 10:46:17;;;;;;;;;;;;;;;4.48;56.47;100835.17;1725429;81;20265;-46
2021/01/11 10:48:45;;;;;;;;;;;;;;;4.80;55.46;100829.72;1729137;80;20465;-43
2021/01/11 10:51:14;;;;;;;;;;;;;;;5.02;54.61;100835.16;1725346;80;20269;-43
2021/01/11 10:53:42;;;;;;;;;;;;;;;5.14;53.92;100836.38;1728935;80;20220;-42
2021/01/11 10:56:12;;;;;;;;;;;;;;;5.00;53.44;100832.08;1720528;81;20183;-43
2021/01/11 10:58:39;;;;;;;;;;;;;;;4.72;53.52;100838.09;1703623;81;20157;-42
2021/01/11 11:01:14;;;;;;;;;;;;;;;4.39;53.59;100834.86;1704600;81;20196;-46
2021/01/11 11:03:44;;;;;;;;;;;;;;;4.02;53.86;100833.15;1704528;81;20269;-42
2021/01/11 11:06:13;;;;;;;;;;;;;;;3.64;54.68;100828.77;1713567;81;20514;-42
2021/01/11 11:08:41;;;;;;;;;;;;;;;3.48;55.76;100832.52;1686900;81;20562;-43
2021/01/11 11:11:08;;;;;;;;;;;;;;;3.56;56.16;100827.20;1708316;81;20518;-42
2021/01/11 11:13:41;;;;;;;;;;;;;;;3.61;56.04;100830.84;1708812;81;20440;-42
2021/01/11 11:16:09;;;;;;;;;;;;;;;3.74;56.09;100824.41;1714657;81;20160;-42
2021/01/11 11:18:40;;;;;;;;;;;;;;;3.94;55.87;100827.68;1708693;81;20170;-42
2021/01/11 11:21:09;;;;;;;;;;;;;;;4.26;55.77;100824.50;1716881;81;20184;-44
2021/01/11 11:23:36;;;;;;;;;;;;;;;4.60;54.89;100820.44;1708160;81;20759;-47
2021/01/11 11:26:04;;;;;;;;;;;;;;;4.72;53.64;100820.83;1721218;81;20192;-44
2021/01/11 11:28:35;;;;;;;;;;;;;;;4.67;53.31;100822.81;1710423;81;20167;-43
2021/01/11 11:31:03;;;;;;;;;;;;;;;4.58;52.81;100828.59;1711596;82;20422;-43
2021/01/11 11:33:31;;;;;;;;;;;;;;;4.30;52.85;100831.09;1685635;82;20435;-43
2021/01/11 11:35:59;;;;;;;;;;;;;;;3.98;53.65;100828.27;1711688;82;20180;-43
2021/01/11 11:38:27;;;;;;;;;;;;;;;3.79;54.26;100825.86;1690778;81;20438;-42
2021/01/11 11:40:55;;;;;;;;;;;;;;;3.72;54.73;100834.70;1720129;81;20279;-42
2021/01/11 11:43:22;;;;;;;;;;;;;;;3.76;54.97;100830.91;1718464;81;20567;-42
2021/01/11 11:45:50;;;;;;;;;;;;;;;3.74;54.95;100840.80;1709317;81;20240;-43
2021/01/11 11:48:20;;;;;;;;;;;;;;;3.73;55.05;100839.47;1705262;81;20279;-43
2021/01/11 11:50:47;;;;;;;;;;;;;;;3.76;55.12;100838.27;1701202;82;20565;-42
2021/01/11 11:53:14;;;;;;;;;;;;;;;4.04;55.14;100834.07;1681302;83;20184;-47
2021/01/11 11:55:43;;;;;;;;;;;;;;;4.50;54.62;100833.92;1698150;83;20256;-47
2021/01/11 11:58:10;;;;;;;;;;;;;;;4.78;53.66;100831.39;1689352;82;20187;-43
2021/01/11 12:00:38;;;;;;;;;;;;;;;4.98;53.22;100829.41;1704120;84;20414;-47
2021/01/11 12:03:07;;;;;;;;;;;;;;;5.32;52.54;100831.73;1680078;84;20199;-46
2021/01/11 12:05:34;;;;;;;;;;;;;;;5.79;51.20;100837.41;1700147;83;20180;-46
2021/01/11 12:08:02;;;;;;;;;;;;;;;5.98;50.63;100838.43;1683648;82;20193;-47
2021/01/11 12:10:29;;;;;;;;;;;;;;;6.19;50.20;100838.52;1703894;82;20178;-43
2021/01/11 12:12:56;;;;;;;;;;;;;;;6.36;49.11;100838.13;1694119;82;20180;-42
2021/01/11 12:15:24;;;;;;;;;;;;;;;6.22;48.73;100843.39;1684021;82;20470;-43
2021/01/11 12:17:52;;;;;;;;;;;;;;;5.74;49.43;100843.80;1695603;82;20179;-43
2021/01/11 12:20:20;;;;;;;;;;;;;;;5.25;50.16;100841.05;1703611;83;20463;-43
2021/01/11 12:22:47;;;;;;;;;;;;;;;4.86;51.06;100839.82;1698144;82;20200;-43
2021/01/11 12:25:14;;;;;;;;;;;;;;;4.52;51.99;100842.61;1697558;82;20179;-43
2021/01/11 12:27:42;;;;;;;;;;;;;;;4.30;52.62;100851.82;1700816;82;20160;-43
2021/01/11 12:30:10;;;;;;;;;;;;;;;4.20;53.11;100841.13;1677738;82;20203;-43
2021/01/11 12:32:40;;;;;;;;;;;;;;;4.08;53.18;100843.72;1687289;82;20186;-43
2021/01/11 12:35:10;;;;;;;;;;;;;;;3.85;53.75;100842.91;1682548;84;20176;-43
2021/01/11 12:37:37;;;;;;;;;;;;;;;3.79;53.97;100849.16;1681928;82;20202;-47
2021/01/11 12:40:05;;;;;;;;;;;;;;;3.90;53.80;100846.55;1686401;84;20176;-47
2021/01/11 12:42:33;;;;;;;;;;;;;;;4.09;53.40;100848.94;1698574;83;20177;-47
2021/01/11 12:45:02;;;;;;;;;;;;;;;4.25;53.30;100850.36;1692974;84;20177;-47
2021/01/11 12:47:37;;;;;;;;;;;;;;;4.36;53.51;100845.12;1701829;82;20178;-47
2021/01/11 12:50:06;;;;;;;;;;;;;;;4.45;53.48;100848.43;1684269;83;20165;-43
2021/01/11 12:52:34;;;;;;;;;;;;;;;4.59;53.21;100843.72;1702513;82;20212;-43
2021/01/11 12:55:02;;;;;;;;;;;;;;;4.84;52.70;100840.20;1705089;84;20148;-44
2021/01/11 12:57:33;;;;;;;;;;;;;;;5.05;52.29;100838.29;1725791;82;20192;-43
2021/01/11 13:00:01;;;;;;;;;;;;;;;5.24;52.06;100848.80;1738801;82;20178;-46
2021/01/11 13:02:28;;;;;;;;;;;;;;;5.45;51.65;100847.23;1708054;82;20447;-50
2021/01/11 13:04:57;;;;;;;;;;;;;;;5.54;51.17;100857.48;1721848;82;20186;-47
2021/01/11 13:07:25;;;;;;;;;;;;;;;5.70;50.96;100854.92;1734910;81;20202;-47
2021/01/11 13:09:52;;;;;;;;;;;;;;;5.79;50.53;100855.59;1735346;80;20158;-43
2021/01/11 13:12:20;;;;;;;;;;;;;;;5.87;50.06;100858.00;1736323;80;20207;-43
2021/01/11 13:14:47;;;;;;;;;;;;;;;6.02;49.61;100854.53;1741208;82;20564;-43
2021/01/11 13:17:15;;;;;;;;;;;;;;;6.15;49.29;100859.67;1739991;82;20676;-46
2021/01/11 13:19:44;;;;;;;;;;;;;;;6.03;49.07;100855.41;1666426;83;20185;-46
2021/01/11 13:22:15;;;;;;;;;;;;;;;5.57;49.21;100865.80;1689791;84;20661;-42
2021/01/11 13:24:42;;;;;;;;;;;;;;;5.13;50.12;100851.48;1664371;83;20490;-44
2021/01/11 13:27:09;;;;;;;;;;;;;;;4.85;50.53;100858.39;1678510;83;20560;-43
2021/01/11 13:29:39;;;;;;;;;;;;;;;4.56;51.08;100853.97;1673756;83;20208;-42
2021/01/11 13:32:07;;;;;;;;;;;;;;;4.25;51.73;100857.72;1668883;83;20236;-44
2021/01/11 13:34:35;;;;;;;;;;;;;;;3.93;52.58;100859.16;1670486;83;20196;-47
2021/01/11 13:37:05;;;;;;;;;;;;;;;3.77;53.21;100862.44;1691959;83;20301;-43
2021/01/11 13:39:33;;;;;;;;;;;;;;;3.61;53.55;100857.14;1691307;84;20312;-45
2021/01/11 13:42:01;;;;;;;;;;;;;;;3.36;53.90;100859.20;1690005;85;20170;-42
2021/01/11 13:44:28;;;;;;;;;;;;;;;3.09;54.34;100860.33;1677848;83;20537;-43
2021/01/11 13:46:57;;;;;;;;;;;;;;;2.92;54.89;100862.25;1688994;83;20269;-47
2021/01/11 13:49:25;;;;;;;;;;;;;;;2.83;55.34;100865.75;1671886;83;20198;-42
